sensor_id;sensor_type;location;lat;lon;timestamp;temperature;humidity
74294;DHT22;64044;59.904;10.738;2024-03-23T00:53:51;7.10;55.90
74294;DHT22;64044;59.904;10.738;2024-03-23T00:56:17;7.10;55.90
74294;DHT22;64044;59.904;10.738;2024-03-23T00:58:43;7.10;56.00
74294;DHT22;64044;59.904;10.738;2024-03-23T01:01:08;7.10;56.00
74294;DHT22;64044;59.904;10.738;2024-03-23T01:03:34;7.10;56.00
74294;DHT22;64044;59.904;10.738;2024-03-23T01:06:03;7.10;55.90
74294;DHT22;64044;59.904;10.738;2024-03-23T01:08:29;7.10;56.00
74294;DHT22;64044;59.904;10.738;2024-03-23T01:10:59;7.10;55.90
74294;DHT22;64044;59.904;10.738;2024-03-23T01:13:26;7.10;56.00
74294;DHT22;64044;59.904;10.738;2024-03-23T01:15:53;7.10;56.00
74294;DHT22;64044;59.904;10.738;2024-03-23T01:18:20;7.10;56.10
74294;DHT22;64044;59.904;10.738;2024-03-23T01:20:46;7.10;56.10
74294;DHT22;64044;59.904;10.738;2024-03-23T01:23:12;7.10;56.10
74294;DHT22;64044;59.904;10.738;2024-03-23T01:25:37;7.00;56.10
74294;DHT22;64044;59.904;10.738;2024-03-23T01:28:03;7.10;56.10
74294;DHT22;64044;59.904;10.738;2024-03-23T01:30:30;7.00;56.10
74294;DHT22;64044;59.904;10.738;2024-03-23T01:32:56;7.00;56.30
74294;DHT22;64044;59.904;10.738;2024-03-23T01:35:21;7.00;56.40
74294;DHT22;64044;59.904;10.738;2024-03-23T01:37:47;7.00;56.60
74294;DHT22;64044;59.904;10.738;2024-03-23T01:40:13;7.00;56.70
74294;DHT22;64044;59.904;10.738;2024-03-23T01:42:39;7.00;56.90
74294;DHT22;64044;59.904;10.738;2024-03-23T01:45:09;7.00;56.80
74294;DHT22;64044;59.904;10.738;2024-03-23T01:47:37;7.00;57.00
74294;DHT22;64044;59.904;10.738;2024-03-23T01:50:03;7.00;56.90
74294;DHT22;64044;59.904;10.738;2024-03-23T01:52:29;7.00;57.00
74294;DHT22;64044;59.904;10.738;2024-03-23T01:54:55;7.00;57.10
74294;DHT22;64044;59.904;10.738;2024-03-23T01:57:21;7.00;57.10
74294;DHT22;64044;59.904;10.738;2024-03-23T01:59:48;7.00;57.00
74294;DHT22;64044;59.904;10.738;2024-03-23T02:02:13;7.00;57.30
74294;DHT22;64044;59.904;10.738;2024-03-23T02:04:39;7.00;57.10
74294;DHT22;64044;59.904;10.738;2024-03-23T02:07:06;7.00;57.00
74294;DHT22;64044;59.904;10.738;2024-03-23T02:09:32;7.00;57.10
74294;DHT22;64044;59.904;10.738;2024-03-23T02:11:58;6.90;57.10
74294;DHT22;64044;59.904;10.738;2024-03-23T02:14:24;7.00;57.20
74294;DHT22;64044;59.904;10.738;2024-03-23T02:16:50;6.90;57.20
74294;DHT22;64044;59.904;10.738;2024-03-23T02:19:15;7.00;57.30
74294;DHT22;64044;59.904;10.738;2024-03-23T02:21:41;7.00;57.40
74294;DHT22;64044;59.904;10.738;2024-03-23T02:24:07;6.90;57.50
74294;DHT22;64044;59.904;10.738;2024-03-23T02:26:32;6.90;57.60
74294;DHT22;64044;59.904;10.738;2024-03-23T02:28:58;6.90;57.70
74294;DHT22;64044;59.904;10.738;2024-03-23T02:31:24;7.00;57.90
74294;DHT22;64044;59.904;10.738;2024-03-23T02:33:49;7.00;58.10
74294;DHT22;64044;59.904;10.738;2024-03-23T02:36:15;6.90;57.80
74294;DHT22;64044;59.904;10.738;2024-03-23T02:38:41;6.90;57.80
74294;DHT22;64044;59.904;10.738;2024-03-23T02:41:06;6.90;57.90
74294;DHT22;64044;59.904;10.738;2024-03-23T02:43:32;6.90;58.00
74294;DHT22;64044;59.904;10.738;2024-03-23T02:45:58;6.90;57.90
74294;DHT22;64044;59.904;10.738;2024-03-23T02:48:23;6.90;58.40
74294;DHT22;64044;59.904;10.738;2024-03-23T02:50:49;6.90;57.90
74294;DHT22;64044;59.904;10.738;2024-03-23T02:53:16;6.90;58.00
74294;DHT22;64044;59.904;10.738;2024-03-23T02:55:41;6.90;58.10
74294;DHT22;64044;59.904;10.738;2024-03-23T02:58:07;6.90;58.10
74294;DHT22;64044;59.904;10.738;2024-03-23T03:00:33;6.90;58.20
74294;DHT22;64044;59.904;10.738;2024-03-23T03:02:58;6.90;58.20
74294;DHT22;64044;59.904;10.738;2024-03-23T03:05:24;6.90;58.30
74294;DHT22;64044;59.904;10.738;2024-03-23T03:07:50;6.90;58.30
74294;DHT22;64044;59.904;10.738;2024-03-23T03:10:16;6.90;59.00
74294;DHT22;64044;59.904;10.738;2024-03-23T03:12:41;6.90;58.40
74294;DHT22;64044;59.904;10.738;2024-03-23T03:15:08;6.90;58.40
74294;DHT22;64044;59.904;10.738;2024-03-23T03:17:35;6.90;58.60
74294;DHT22;64044;59.904;10.738;2024-03-23T03:20:00;6.90;58.70
74294;DHT22;64044;59.904;10.738;2024-03-23T03:22:26;6.80;58.70
74294;DHT22;64044;59.904;10.738;2024-03-23T03:24:52;6.90;58.80
74294;DHT22;64044;59.904;10.738;2024-03-23T03:27:17;6.90;58.90
74294;DHT22;64044;59.904;10.738;2024-03-23T03:29:43;6.90;59.00
74294;DHT22;64044;59.904;10.738;2024-03-23T03:32:09;6.90;59.00
74294;DHT22;64044;59.904;10.738;2024-03-23T03:34:34;6.90;59.00
74294;DHT22;64044;59.904;10.738;2024-03-23T03:37:00;6.90;59.00
74294;DHT22;64044;59.904;10.738;2024-03-23T03:39:26;6.90;59.10
74294;DHT22;64044;59.904;10.738;2024-03-23T03:41:51;6.90;59.20
74294;DHT22;64044;59.904;10.738;2024-03-23T03:44:17;6.90;59.30
74294;DHT22;64044;59.904;10.738;2024-03-23T03:46:43;6.90;59.30
74294;DHT22;64044;59.904;10.738;2024-03-23T03:49:09;6.90;59.40
74294;DHT22;64044;59.904;10.738;2024-03-23T03:51:35;6.90;59.50
74294;DHT22;64044;59.904;10.738;2024-03-23T03:54:00;6.90;59.50
74294;DHT22;64044;59.904;10.738;2024-03-23T03:56:26;6.90;59.60
74294;DHT22;64044;59.904;10.738;2024-03-23T03:58:53;6.90;59.70
74294;DHT22;64044;59.904;10.738;2024-03-23T04:01:18;6.90;59.80
74294;DHT22;64044;59.904;10.738;2024-03-23T04:03:45;6.90;59.80
74294;DHT22;64044;59.904;10.738;2024-03-23T04:06:10;6.90;59.90
74294;DHT22;64044;59.904;10.738;2024-03-23T04:08:36;6.90;59.90
74294;DHT22;64044;59.904;10.738;2024-03-23T04:11:02;6.90;59.90
74294;DHT22;64044;59.904;10.738;2024-03-23T04:13:28;6.90;60.00
74294;DHT22;64044;59.904;10.738;2024-03-23T04:15:55;6.90;60.00
74294;DHT22;64044;59.904;10.738;2024-03-23T04:18:21;6.90;60.30
74294;DHT22;64044;59.904;10.738;2024-03-23T04:20:48;7.00;60.50
74294;DHT22;64044;59.904;10.738;2024-03-23T04:23:14;7.00;60.50
74294;DHT22;64044;59.904;10.738;2024-03-23T04:25:40;7.00;60.60
74294;DHT22;64044;59.904;10.738;2024-03-23T04:28:06;7.00;60.70
74294;DHT22;64044;59.904;10.738;2024-03-23T04:30:32;7.00;60.70
74294;DHT22;64044;59.904;10.738;2024-03-23T04:32:58;7.00;60.70
74294;DHT22;64044;59.904;10.738;2024-03-23T04:35:24;7.00;60.80
74294;DHT22;64044;59.904;10.738;2024-03-23T04:37:53;7.00;61.00
74294;DHT22;64044;59.904;10.738;2024-03-23T04:40:21;7.00;61.10
74294;DHT22;64044;59.904;10.738;2024-03-23T04:42:47;7.00;61.30
74294;DHT22;64044;59.904;10.738;2024-03-23T04:45:13;7.00;61.30
74294;DHT22;64044;59.904;10.738;2024-03-23T04:47:39;7.00;61.40
74294;DHT22;64044;59.904;10.738;2024-03-23T04:50:05;7.00;61.50
74294;DHT22;64044;59.904;10.738;2024-03-23T04:52:31;7.00;61.60
74294;DHT22;64044;59.904;10.738;2024-03-23T04:54:57;7.00;61.60
74294;DHT22;64044;59.904;10.738;2024-03-23T04:57:23;7.00;61.50
74294;DHT22;64044;59.904;10.738;2024-03-23T04:59:48;7.00;61.60
74294;DHT22;64044;59.904;10.738;2024-03-23T05:02:15;7.00;61.60
74294;DHT22;64044;59.904;10.738;2024-03-23T05:04:40;7.00;61.60
74294;DHT22;64044;59.904;10.738;2024-03-23T05:07:07;7.00;61.70
74294;DHT22;64044;59.904;10.738;2024-03-23T05:09:32;7.00;61.80
74294;DHT22;64044;59.904;10.738;2024-03-23T05:11:59;7.00;61.80
74294;DHT22;64044;59.904;10.738;2024-03-23T05:14:26;7.00;61.90
74294;DHT22;64044;59.904;10.738;2024-03-23T05:16:52;7.00;61.90
74294;DHT22;64044;59.904;10.738;2024-03-23T05:19:18;7.00;62.00
74294;DHT22;64044;59.904;10.738;2024-03-23T05:21:44;7.00;61.90
74294;DHT22;64044;59.904;10.738;2024-03-23T05:24:11;7.10;62.00
74294;DHT22;64044;59.904;10.738;2024-03-23T05:26:37;7.10;62.00
74294;DHT22;64044;59.904;10.738;2024-03-23T05:29:03;7.10;62.00
74294;DHT22;64044;59.904;10.738;2024-03-23T05:31:31;7.10;62.00
74294;DHT22;64044;59.904;10.738;2024-03-23T05:33:57;7.10;62.10
74294;DHT22;64044;59.904;10.738;2024-03-23T05:36:23;7.10;62.10
74294;DHT22;64044;59.904;10.738;2024-03-23T05:38:51;7.10;62.20
74294;DHT22;64044;59.904;10.738;2024-03-23T05:41:17;7.20;62.20
74294;DHT22;64044;59.904;10.738;2024-03-23T05:43:43;7.20;62.30
74294;DHT22;64044;59.904;10.738;2024-03-23T05:46:09;7.20;62.30
74294;DHT22;64044;59.904;10.738;2024-03-23T05:48:34;7.20;62.30
74294;DHT22;64044;59.904;10.738;2024-03-23T05:51:00;7.20;62.30
74294;DHT22;64044;59.904;10.738;2024-03-23T05:53:26;7.20;62.30
74294;DHT22;64044;59.904;10.738;2024-03-23T05:56:01;7.20;62.40
74294;DHT22;64044;59.904;10.738;2024-03-23T05:58:31;7.20;62.60
74294;DHT22;64044;59.904;10.738;2024-03-23T06:01:03;7.30;62.60
74294;DHT22;64044;59.904;10.738;2024-03-23T06:03:29;7.30;62.80
74294;DHT22;64044;59.904;10.738;2024-03-23T06:05:55;7.30;62.60
74294;DHT22;64044;59.904;10.738;2024-03-23T06:08:21;7.30;62.70
74294;DHT22;64044;59.904;10.738;2024-03-23T06:10:47;7.30;62.80
74294;DHT22;64044;59.904;10.738;2024-03-23T06:13:13;7.30;62.90
74294;DHT22;64044;59.904;10.738;2024-03-23T06:15:39;7.40;63.00
74294;DHT22;64044;59.904;10.738;2024-03-23T06:18:05;7.40;63.00
74294;DHT22;64044;59.904;10.738;2024-03-23T06:20:33;7.40;63.00
74294;DHT22;64044;59.904;10.738;2024-03-23T06:22:59;7.40;63.10
74294;DHT22;64044;59.904;10.738;2024-03-23T06:25:25;7.40;63.10
74294;DHT22;64044;59.904;10.738;2024-03-23T06:27:51;7.50;63.20
74294;DHT22;64044;59.904;10.738;2024-03-23T06:30:16;7.50;63.20
74294;DHT22;64044;59.904;10.738;2024-03-23T06:32:42;7.50;63.20
74294;DHT22;64044;59.904;10.738;2024-03-23T06:35:08;7.60;63.20
74294;DHT22;64044;59.904;10.738;2024-03-23T06:37:36;7.60;63.30
74294;DHT22;64044;59.904;10.738;2024-03-23T06:40:02;7.60;63.30
74294;DHT22;64044;59.904;10.738;2024-03-23T06:42:30;7.60;63.20
74294;DHT22;64044;59.904;10.738;2024-03-23T06:44:55;7.60;63.10
74294;DHT22;64044;59.904;10.738;2024-03-23T06:47:21;7.70;63.20
74294;DHT22;64044;59.904;10.738;2024-03-23T06:49:47;7.70;63.10
74294;DHT22;64044;59.904;10.738;2024-03-23T06:52:12;7.70;63.00
74294;DHT22;64044;59.904;10.738;2024-03-23T06:55:04;7.70;63.00
74294;DHT22;64044;59.904;10.738;2024-03-23T06:57:31;7.70;63.00
74294;DHT22;64044;59.904;10.738;2024-03-23T06:59:57;7.70;62.90
74294;DHT22;64044;59.904;10.738;2024-03-23T07:02:23;7.80;63.00
74294;DHT22;64044;59.904;10.738;2024-03-23T07:04:48;7.80;63.00
74294;DHT22;64044;59.904;10.738;2024-03-23T07:07:14;7.80;62.90
74294;DHT22;64044;59.904;10.738;2024-03-23T07:09:40;7.90;62.90
74294;DHT22;64044;59.904;10.738;2024-03-23T07:12:05;7.90;62.80
74294;DHT22;64044;59.904;10.738;2024-03-23T07:14:31;7.90;62.70
74294;DHT22;64044;59.904;10.738;2024-03-23T07:16:57;7.90;62.70
74294;DHT22;64044;59.904;10.738;2024-03-23T07:19:23;7.90;62.60
74294;DHT22;64044;59.904;10.738;2024-03-23T07:21:50;7.90;62.60
74294;DHT22;64044;59.904;10.738;2024-03-23T07:24:15;7.90;62.60
74294;DHT22;64044;59.904;10.738;2024-03-23T07:26:41;8.00;62.60
74294;DHT22;64044;59.904;10.738;2024-03-23T07:29:07;8.00;62.60
74294;DHT22;64044;59.904;10.738;2024-03-23T07:31:33;8.00;62.50
74294;DHT22;64044;59.904;10.738;2024-03-23T07:33:58;8.00;62.50
74294;DHT22;64044;59.904;10.738;2024-03-23T07:36:24;8.00;62.50
74294;DHT22;64044;59.904;10.738;2024-03-23T07:38:50;8.00;62.50
74294;DHT22;64044;59.904;10.738;2024-03-23T07:41:18;8.10;62.50
74294;DHT22;64044;59.904;10.738;2024-03-23T07:43:45;8.10;62.60
74294;DHT22;64044;59.904;10.738;2024-03-23T07:46:11;8.10;62.60
74294;DHT22;64044;59.904;10.738;2024-03-23T07:48:40;8.10;62.50
74294;DHT22;64044;59.904;10.738;2024-03-23T07:51:09;8.10;62.50
74294;DHT22;64044;59.904;10.738;2024-03-23T07:53:36;8.10;62.60
74294;DHT22;64044;59.904;10.738;2024-03-23T07:56:07;8.20;62.70
74294;DHT22;64044;59.904;10.738;2024-03-23T07:58:33;8.20;62.70
74294;DHT22;64044;59.904;10.738;2024-03-23T08:01:08;8.30;62.50
74294;DHT22;64044;59.904;10.738;2024-03-23T08:03:35;8.20;62.40
74294;DHT22;64044;59.904;10.738;2024-03-23T08:08:36;8.30;62.60
74294;DHT22;64044;59.904;10.738;2024-03-23T08:11:02;8.40;62.50
74294;DHT22;64044;59.904;10.738;2024-03-23T08:13:29;8.40;62.40
74294;DHT22;64044;59.904;10.738;2024-03-23T08:15:59;8.40;62.40
74294;DHT22;64044;59.904;10.738;2024-03-23T08:18:25;8.40;62.40
74294;DHT22;64044;59.904;10.738;2024-03-23T08:23:27;8.50;62.40
74294;DHT22;64044;59.904;10.738;2024-03-23T08:26:07;8.50;62.20
74294;DHT22;64044;59.904;10.738;2024-03-23T08:28:34;8.60;62.40
74294;DHT22;64044;59.904;10.738;2024-03-23T08:31:25;8.60;62.10
74294;DHT22;64044;59.904;10.738;2024-03-23T08:33:51;8.60;62.20
74294;DHT22;64044;59.904;10.738;2024-03-23T08:36:16;8.70;61.90
74294;DHT22;64044;59.904;10.738;2024-03-23T08:38:42;8.70;61.90
74294;DHT22;64044;59.904;10.738;2024-03-23T08:41:10;8.80;61.90
74294;DHT22;64044;59.904;10.738;2024-03-23T08:43:40;8.80;61.90
74294;DHT22;64044;59.904;10.738;2024-03-23T08:46:13;8.80;61.90
74294;DHT22;64044;59.904;10.738;2024-03-23T08:48:46;8.90;62.00
74294;DHT22;64044;59.904;10.738;2024-03-23T08:51:15;9.00;61.90
74294;DHT22;64044;59.904;10.738;2024-03-23T08:53:41;9.10;61.80
74294;DHT22;64044;59.904;10.738;2024-03-23T08:56:09;9.10;61.70
74294;DHT22;64044;59.904;10.738;2024-03-23T08:58:36;9.10;61.60
74294;DHT22;64044;59.904;10.738;2024-03-23T09:01:07;9.20;61.50
74294;DHT22;64044;59.904;10.738;2024-03-23T09:03:33;9.20;61.30
74294;DHT22;64044;59.904;10.738;2024-03-23T09:06:00;9.30;61.20
74294;DHT22;64044;59.904;10.738;2024-03-23T09:08:27;9.30;61.10
74294;DHT22;64044;59.904;10.738;2024-03-23T09:10:53;9.40;61.00
74294;DHT22;64044;59.904;10.738;2024-03-23T09:13:18;9.40;61.00
74294;DHT22;64044;59.904;10.738;2024-03-23T09:15:52;9.40;61.00
74294;DHT22;64044;59.904;10.738;2024-03-23T09:18:22;9.40;61.00
74294;DHT22;64044;59.904;10.738;2024-03-23T09:20:47;9.50;61.00
74294;DHT22;64044;59.904;10.738;2024-03-23T09:23:13;9.50;60.90
74294;DHT22;64044;59.904;10.738;2024-03-23T09:25:39;9.60;60.80
74294;DHT22;64044;59.904;10.738;2024-03-23T09:28:06;9.60;60.70
74294;DHT22;64044;59.904;10.738;2024-03-23T09:30:34;9.60;60.40
74294;DHT22;64044;59.904;10.738;2024-03-23T09:33:00;9.70;60.20
74294;DHT22;64044;59.904;10.738;2024-03-23T09:35:27;9.70;60.00
74294;DHT22;64044;59.904;10.738;2024-03-23T09:37:52;9.80;59.90
74294;DHT22;64044;59.904;10.738;2024-03-23T09:40:18;9.80;59.90
74294;DHT22;64044;59.904;10.738;2024-03-23T09:42:49;9.90;59.80
74294;DHT22;64044;59.904;10.738;2024-03-23T09:45:26;9.90;59.70
74294;DHT22;64044;59.904;10.738;2024-03-23T09:47:52;10.00;59.60
74294;DHT22;64044;59.904;10.738;2024-03-23T09:50:18;10.00;59.40
74294;DHT22;64044;59.904;10.738;2024-03-23T09:52:46;10.10;59.30
74294;DHT22;64044;59.904;10.738;2024-03-23T09:55:12;10.10;59.20
74294;DHT22;64044;59.904;10.738;2024-03-23T09:57:39;10.10;59.10
74294;DHT22;64044;59.904;10.738;2024-03-23T10:00:06;10.20;59.00
74294;DHT22;64044;59.904;10.738;2024-03-23T10:02:36;10.20;59.00
74294;DHT22;64044;59.904;10.738;2024-03-23T10:05:02;10.20;58.80
74294;DHT22;64044;59.904;10.738;2024-03-23T10:07:28;10.20;58.70
74294;DHT22;64044;59.904;10.738;2024-03-23T10:09:57;10.20;58.50
74294;DHT22;64044;59.904;10.738;2024-03-23T10:12:23;10.20;58.30
74294;DHT22;64044;59.904;10.738;2024-03-23T10:14:50;10.20;58.20
74294;DHT22;64044;59.904;10.738;2024-03-23T10:17:17;10.20;58.00
74294;DHT22;64044;59.904;10.738;2024-03-23T10:19:47;10.10;58.00
74294;DHT22;64044;59.904;10.738;2024-03-23T10:22:22;10.20;58.10
74294;DHT22;64044;59.904;10.738;2024-03-23T10:24:48;10.10;58.20
74294;DHT22;64044;59.904;10.738;2024-03-23T10:27:19;10.00;58.20
74294;DHT22;64044;59.904;10.738;2024-03-23T10:29:46;10.00;58.30
74294;DHT22;64044;59.904;10.738;2024-03-23T10:32:13;10.00;58.40
74294;DHT22;64044;59.904;10.738;2024-03-23T10:34:39;9.90;58.60
74294;DHT22;64044;59.904;10.738;2024-03-23T10:37:06;9.90;58.60
74294;DHT22;64044;59.904;10.738;2024-03-23T10:39:39;9.90;58.70
74294;DHT22;64044;59.904;10.738;2024-03-23T10:42:09;9.90;58.70
74294;DHT22;64044;59.904;10.738;2024-03-23T10:44:38;9.90;58.90
74294;DHT22;64044;59.904;10.738;2024-03-23T10:47:05;9.90;58.90
74294;DHT22;64044;59.904;10.738;2024-03-23T10:49:35;9.80;59.00
74294;DHT22;64044;59.904;10.738;2024-03-23T10:52:03;9.80;59.00
74294;DHT22;64044;59.904;10.738;2024-03-23T10:54:30;9.90;59.10
74294;DHT22;64044;59.904;10.738;2024-03-23T10:57:20;9.90;59.20
74294;DHT22;64044;59.904;10.738;2024-03-23T10:59:47;9.90;59.30
74294;DHT22;64044;59.904;10.738;2024-03-23T11:02:20;9.90;59.30
74294;DHT22;64044;59.904;10.738;2024-03-23T11:04:45;9.90;59.50
74294;DHT22;64044;59.904;10.738;2024-03-23T11:09:55;10.00;59.70
74294;DHT22;64044;59.904;10.738;2024-03-23T11:15:01;10.10;59.80
74294;DHT22;64044;59.904;10.738;2024-03-23T11:17:27;10.20;59.80
74294;DHT22;64044;59.904;10.738;2024-03-23T11:20:00;10.20;59.80
74294;DHT22;64044;59.904;10.738;2024-03-23T11:25:19;10.30;59.80
74294;DHT22;64044;59.904;10.738;2024-03-23T11:28:23;10.40;59.70
74294;DHT22;64044;59.904;10.738;2024-03-23T11:30:42;10.40;59.50
74294;DHT22;64044;59.904;10.738;2024-03-23T11:33:08;10.50;59.50
74294;DHT22;64044;59.904;10.738;2024-03-23T11:35:40;10.50;59.40
74294;DHT22;64044;59.904;10.738;2024-03-23T11:38:09;10.50;59.30
74294;DHT22;64044;59.904;10.738;2024-03-23T11:40:37;10.50;59.30
74294;DHT22;64044;59.904;10.738;2024-03-23T11:43:04;10.60;59.40
74294;DHT22;64044;59.904;10.738;2024-03-23T11:45:35;10.60;59.40
74294;DHT22;64044;59.904;10.738;2024-03-23T11:48:05;10.50;59.40
74294;DHT22;64044;59.904;10.738;2024-03-23T11:50:31;10.60;59.30
74294;DHT22;64044;59.904;10.738;2024-03-23T11:53:11;10.60;59.30
74294;DHT22;64044;59.904;10.738;2024-03-23T11:55:50;10.70;59.50
74294;DHT22;64044;59.904;10.738;2024-03-23T11:58:18;10.80;59.50
74294;DHT22;64044;59.904;10.738;2024-03-23T12:00:58;10.80;59.60
74294;DHT22;64044;59.904;10.738;2024-03-23T12:03:24;11.00;59.60
74294;DHT22;64044;59.904;10.738;2024-03-23T12:05:59;11.10;59.50
74294;DHT22;64044;59.904;10.738;2024-03-23T12:11:17;11.40;58.80
74294;DHT22;64044;59.904;10.738;2024-03-23T12:13:44;11.50;58.50
74294;DHT22;64044;59.904;10.738;2024-03-23T12:18:41;11.70;57.90
74294;DHT22;64044;59.904;10.738;2024-03-23T12:21:07;11.70;57.40
74294;DHT22;64044;59.904;10.738;2024-03-23T12:23:34;11.70;57.10
74294;DHT22;64044;59.904;10.738;2024-03-23T12:26:00;11.80;56.80
74294;DHT22;64044;59.904;10.738;2024-03-23T12:28:27;11.80;56.60
74294;DHT22;64044;59.904;10.738;2024-03-23T12:30:52;11.70;56.50
74294;DHT22;64044;59.904;10.738;2024-03-23T12:33:20;11.70;56.60
74294;DHT22;64044;59.904;10.738;2024-03-23T12:35:45;11.70;56.80
74294;DHT22;64044;59.904;10.738;2024-03-23T12:38:11;11.70;57.30
74294;DHT22;64044;59.904;10.738;2024-03-23T12:40:37;11.80;57.70
74294;DHT22;64044;59.904;10.738;2024-03-23T12:43:03;11.90;58.00
74294;DHT22;64044;59.904;10.738;2024-03-23T12:45:28;12.10;58.10
74294;DHT22;64044;59.904;10.738;2024-03-23T12:47:54;12.40;57.90
74294;DHT22;64044;59.904;10.738;2024-03-23T12:50:20;12.60;57.70
74294;DHT22;64044;59.904;10.738;2024-03-23T12:52:46;12.80;57.10
74294;DHT22;64044;59.904;10.738;2024-03-23T12:55:12;13.00;56.40
74294;DHT22;64044;59.904;10.738;2024-03-23T12:57:38;13.20;55.40
74294;DHT22;64044;59.904;10.738;2024-03-23T13:00:04;13.30;54.70
74294;DHT22;64044;59.904;10.738;2024-03-23T13:02:31;13.30;54.30
74294;DHT22;64044;59.904;10.738;2024-03-23T13:04:57;13.30;53.70
74294;DHT22;64044;59.904;10.738;2024-03-23T13:07:23;13.20;53.40
74294;DHT22;64044;59.904;10.738;2024-03-23T13:09:53;13.10;53.10
74294;DHT22;64044;59.904;10.738;2024-03-23T13:12:21;13.00;53.10
74294;DHT22;64044;59.904;10.738;2024-03-23T13:14:47;12.90;53.10
74294;DHT22;64044;59.904;10.738;2024-03-23T13:17:14;12.80;53.40
74294;DHT22;64044;59.904;10.738;2024-03-23T13:19:40;12.70;53.80
74294;DHT22;64044;59.904;10.738;2024-03-23T13:22:06;12.70;54.40
74294;DHT22;64044;59.904;10.738;2024-03-23T13:24:32;12.70;54.40
74294;DHT22;64044;59.904;10.738;2024-03-23T13:26:58;12.70;54.40
74294;DHT22;64044;59.904;10.738;2024-03-23T13:29:24;12.70;54.20
74294;DHT22;64044;59.904;10.738;2024-03-23T13:31:51;12.70;54.20
74294;DHT22;64044;59.904;10.738;2024-03-23T13:34:17;12.70;54.00
74294;DHT22;64044;59.904;10.738;2024-03-23T13:36:47;12.70;53.90
74294;DHT22;64044;59.904;10.738;2024-03-23T13:39:14;12.60;53.90
74294;DHT22;64044;59.904;10.738;2024-03-23T13:41:42;12.60;53.90
74294;DHT22;64044;59.904;10.738;2024-03-23T13:44:08;12.50;54.00
74294;DHT22;64044;59.904;10.738;2024-03-23T13:46:36;12.40;54.30
74294;DHT22;64044;59.904;10.738;2024-03-23T13:49:02;12.40;54.70
74294;DHT22;64044;59.904;10.738;2024-03-23T13:51:28;12.30;55.10
74294;DHT22;64044;59.904;10.738;2024-03-23T13:53:54;12.40;55.60
74294;DHT22;64044;59.904;10.738;2024-03-23T13:56:22;12.50;56.00
74294;DHT22;64044;59.904;10.738;2024-03-23T13:58:47;12.70;56.20
74294;DHT22;64044;59.904;10.738;2024-03-23T14:01:14;12.80;56.30
74294;DHT22;64044;59.904;10.738;2024-03-23T14:03:40;13.10;56.80
74294;DHT22;64044;59.904;10.738;2024-03-23T14:06:07;13.30;55.70
74294;DHT22;64044;59.904;10.738;2024-03-23T14:08:37;13.50;54.70
74294;DHT22;64044;59.904;10.738;2024-03-23T14:11:05;13.70;54.30
74294;DHT22;64044;59.904;10.738;2024-03-23T14:13:31;13.80;54.20
74294;DHT22;64044;59.904;10.738;2024-03-23T14:15:57;14.00;53.60
74294;DHT22;64044;59.904;10.738;2024-03-23T14:18:23;14.10;53.50
74294;DHT22;64044;59.904;10.738;2024-03-23T14:20:50;14.20;53.00
74294;DHT22;64044;59.904;10.738;2024-03-23T14:23:16;14.30;52.70
74294;DHT22;64044;59.904;10.738;2024-03-23T14:25:42;14.40;52.60
74294;DHT22;64044;59.904;10.738;2024-03-23T14:28:08;14.50;52.10
74294;DHT22;64044;59.904;10.738;2024-03-23T14:30:41;14.50;51.60
74294;DHT22;64044;59.904;10.738;2024-03-23T14:33:07;14.40;51.10
74294;DHT22;64044;59.904;10.738;2024-03-23T14:35:33;14.20;51.00
74294;DHT22;64044;59.904;10.738;2024-03-23T14:37:59;14.00;51.10
74294;DHT22;64044;59.904;10.738;2024-03-23T14:40:25;13.90;51.40
74294;DHT22;64044;59.904;10.738;2024-03-23T14:42:54;13.80;51.60
74294;DHT22;64044;59.904;10.738;2024-03-23T14:45:21;13.60;51.70
74294;DHT22;64044;59.904;10.738;2024-03-23T14:47:47;13.50;51.90
74294;DHT22;64044;59.904;10.738;2024-03-23T14:50:13;13.40;52.10
74294;DHT22;64044;59.904;10.738;2024-03-23T14:52:47;13.30;52.40
74294;DHT22;64044;59.904;10.738;2024-03-23T14:55:13;13.20;52.50
74294;DHT22;64044;59.904;10.738;2024-03-23T14:57:38;13.20;52.80
74294;DHT22;64044;59.904;10.738;2024-03-23T15:00:09;13.10;52.90
74294;DHT22;64044;59.904;10.738;2024-03-23T15:02:36;13.00;53.00
74294;DHT22;64044;59.904;10.738;2024-03-23T15:05:02;13.10;53.20
74294;DHT22;64044;59.904;10.738;2024-03-23T15:07:30;13.10;53.10
74294;DHT22;64044;59.904;10.738;2024-03-23T15:09:56;13.10;53.20
74294;DHT22;64044;59.904;10.738;2024-03-23T15:12:22;13.00;53.00
74294;DHT22;64044;59.904;10.738;2024-03-23T15:14:48;13.00;52.90
74294;DHT22;64044;59.904;10.738;2024-03-23T15:17:14;13.00;53.00
74294;DHT22;64044;59.904;10.738;2024-03-23T15:19:39;12.90;53.10
74294;DHT22;64044;59.904;10.738;2024-03-23T15:22:07;12.90;53.60
74294;DHT22;64044;59.904;10.738;2024-03-23T15:24:34;12.90;53.20
74294;DHT22;64044;59.904;10.738;2024-03-23T15:27:01;12.90;53.40
74294;DHT22;64044;59.904;10.738;2024-03-23T15:29:27;12.90;53.50
74294;DHT22;64044;59.904;10.738;2024-03-23T15:31:52;12.90;53.60
74294;DHT22;64044;59.904;10.738;2024-03-23T15:34:21;12.90;53.60
74294;DHT22;64044;59.904;10.738;2024-03-23T15:36:48;12.80;53.60
74294;DHT22;64044;59.904;10.738;2024-03-23T15:39:16;12.90;54.40
74294;DHT22;64044;59.904;10.738;2024-03-23T15:41:44;12.90;54.00
74294;DHT22;64044;59.904;10.738;2024-03-23T15:44:09;12.90;54.20
74294;DHT22;64044;59.904;10.738;2024-03-23T15:46:35;13.00;54.20
74294;DHT22;64044;59.904;10.738;2024-03-23T15:49:01;13.00;54.10
74294;DHT22;64044;59.904;10.738;2024-03-23T15:51:27;13.10;53.90
74294;DHT22;64044;59.904;10.738;2024-03-23T15:54:01;13.10;53.60
74294;DHT22;64044;59.904;10.738;2024-03-23T15:56:28;13.10;53.50
74294;DHT22;64044;59.904;10.738;2024-03-23T15:58:54;13.00;53.30
74294;DHT22;64044;59.904;10.738;2024-03-23T16:01:20;13.00;53.50
74294;DHT22;64044;59.904;10.738;2024-03-23T16:03:46;12.90;53.70
74294;DHT22;64044;59.904;10.738;2024-03-23T16:06:11;12.90;53.80
74294;DHT22;64044;59.904;10.738;2024-03-23T16:08:37;12.90;53.90
74294;DHT22;64044;59.904;10.738;2024-03-23T16:11:07;12.90;53.90
74294;DHT22;64044;59.904;10.738;2024-03-23T16:13:36;12.90;53.80
74294;DHT22;64044;59.904;10.738;2024-03-23T16:16:03;12.80;53.70
74294;DHT22;64044;59.904;10.738;2024-03-23T16:18:30;12.80;53.70
74294;DHT22;64044;59.904;10.738;2024-03-23T16:21:00;12.70;53.70
74294;DHT22;64044;59.904;10.738;2024-03-23T16:23:26;12.60;53.80
74294;DHT22;64044;59.904;10.738;2024-03-23T16:25:54;12.50;53.80
74294;DHT22;64044;59.904;10.738;2024-03-23T16:28:28;12.40;53.90
74294;DHT22;64044;59.904;10.738;2024-03-23T16:31:05;12.20;54.10
74294;DHT22;64044;59.904;10.738;2024-03-23T16:33:34;12.10;54.40
74294;DHT22;64044;59.904;10.738;2024-03-23T16:36:04;11.90;54.50